createdAt,value
2017-04-16T00:00:37.139Z,6.96
2017-04-16T00:01:18.022Z,6.99
2017-04-16T00:01:58.915Z,6.96
2017-04-16T00:02:39.791Z,6.84
2017-04-16T00:03:20.676Z,6.81
2017-04-16T00:04:01.558Z,6.84
2017-04-16T00:04:42.477Z,6.85
2017-04-16T00:05:23.362Z,6.78
2017-04-16T00:06:04.247Z,6.78
2017-04-16T00:06:45.125Z,6.78
2017-04-16T00:07:25.996Z,6.72
2017-04-16T00:08:06.876Z,6.77
2017-04-16T00:08:47.756Z,6.7
2017-04-16T00:09:28.645Z,6.87
2017-04-16T00:10:09.518Z,6.85
2017-04-16T00:10:50.395Z,6.69
2017-04-16T00:11:31.270Z,6.74
2017-04-16T00:13:24.668Z,6.7
2017-04-16T00:14:05.538Z,6.66
2017-04-16T00:14:46.415Z,6.74
2017-04-16T00:15:27.297Z,6.75
2017-04-16T00:16:08.172Z,6.69
2017-04-16T00:16:49.074Z,6.77
2017-04-16T00:17:29.950Z,6.64
2017-04-16T00:18:10.825Z,6.57
2017-04-16T00:18:51.714Z,6.54
2017-04-16T00:19:32.599Z,6.67
2017-04-16T00:20:13.476Z,6.67
2017-04-16T00:20:54.346Z,6.67
2017-04-16T00:21:35.232Z,6.75
2017-04-16T00:22:16.102Z,6.72
2017-04-16T00:22:56.979Z,6.7
2017-04-16T00:23:37.855Z,6.63
2017-04-16T00:24:18.729Z,6.74
2017-04-16T00:24:59.615Z,6.7
2017-04-16T00:25:40.499Z,6.59
2017-04-16T00:26:21.379Z,6.52
2017-04-16T00:27:02.256Z,6.56
2017-04-16T00:27:43.761Z,6.64
2017-04-16T00:28:24.620Z,6.79
2017-04-16T00:29:05.509Z,6.74
2017-04-16T00:29:46.378Z,6.77
2017-04-16T00:30:27.248Z,6.81
2017-04-16T00:31:08.123Z,6.82
2017-04-16T00:31:49.010Z,6.77
2017-04-16T00:32:29.889Z,6.75
2017-04-16T00:33:10.766Z,6.77
2017-04-16T00:33:51.643Z,6.78
2017-04-16T00:34:32.512Z,6.75
2017-04-16T00:35:13.402Z,6.66
2017-04-16T00:35:54.288Z,6.72
2017-04-16T00:36:35.171Z,6.7
2017-04-16T00:37:16.050Z,6.74
2017-04-16T00:38:55.298Z,6.75
2017-04-16T00:39:36.171Z,6.75
2017-04-16T00:40:17.053Z,6.77
2017-04-16T00:40:57.935Z,6.69
2017-04-16T00:41:38.805Z,6.56
2017-04-16T00:42:19.678Z,6.46
2017-04-16T00:43:00.560Z,6.45
2017-04-16T00:43:41.439Z,6.44
2017-04-16T00:44:22.314Z,6.56
2017-04-16T00:45:03.187Z,6.42
2017-04-16T00:45:44.068Z,6.42
2017-04-16T00:46:24.953Z,6.49
2017-04-16T00:47:05.835Z,6.42
2017-04-16T00:47:46.727Z,6.36
2017-04-16T00:48:27.617Z,6.44
2017-04-16T00:49:08.476Z,6.44
2017-04-16T00:49:49.355Z,6.45
2017-04-16T00:50:30.228Z,6.42
2017-04-16T00:51:11.104Z,6.56
2017-04-16T00:51:51.976Z,6.49
2017-04-16T00:52:32.850Z,6.44
2017-04-16T00:53:13.733Z,6.36
2017-04-16T00:53:54.608Z,6.45
2017-04-16T00:54:35.486Z,6.39
2017-04-16T00:55:16.356Z,6.41
2017-04-16T00:55:57.237Z,6.33
2017-04-16T00:56:38.120Z,6.31
2017-04-16T00:57:18.999Z,6.28
2017-04-16T00:57:59.871Z,6.33
2017-04-16T00:58:40.745Z,6.3
2017-04-16T00:59:21.629Z,6.42
2017-04-16T01:00:02.503Z,6.3
2017-04-16T01:00:43.390Z,6.39
2017-04-16T01:01:24.259Z,6.38
2017-04-16T01:02:05.138Z,6.6
2017-04-16T01:02:46.012Z,6.59
2017-04-16T01:03:26.868Z,6.51
2017-04-16T01:04:07.744Z,6.42
2017-04-16T01:04:48.632Z,6.28
2017-04-16T01:05:29.531Z,6.36
2017-04-16T01:06:10.403Z,6.42
2017-04-16T01:06:51.285Z,6.42
2017-04-16T01:07:32.175Z,6.44
2017-04-16T01:08:13.054Z,6.39
2017-04-16T01:08:53.925Z,6.63
2017-04-16T01:09:34.798Z,6.67
2017-04-16T01:10:15.685Z,6.45
2017-04-16T01:10:56.560Z,6.57
2017-04-16T01:11:37.430Z,6.57
2017-04-16T01:12:18.314Z,6.48
2017-04-16T01:12:59.194Z,6.41
2017-04-16T01:13:40.068Z,6.36
2017-04-16T01:14:20.985Z,6.28
2017-04-16T01:15:01.887Z,6.28
2017-04-16T01:15:42.748Z,6.3
2017-04-16T01:16:23.627Z,6.41
2017-04-16T01:17:04.500Z,6.42
2017-04-16T01:17:45.378Z,6.45
2017-04-16T01:18:26.243Z,6.33
2017-04-16T01:19:07.107Z,6.41
2017-04-16T01:19:47.993Z,6.41
2017-04-16T01:20:28.872Z,6.42
2017-04-16T01:21:09.753Z,6.42
2017-04-16T01:21:50.630Z,6.49
2017-04-16T01:22:31.502Z,6.28
2017-04-16T01:23:12.387Z,6.28
2017-04-16T01:23:53.266Z,6.26
2017-04-16T01:24:34.139Z,6.28
2017-04-16T01:25:15.019Z,6.24
2017-04-16T01:25:55.896Z,6.3
2017-04-16T01:26:36.776Z,6.49
2017-04-16T01:27:17.661Z,6.45
2017-04-16T01:27:58.527Z,6.51
2017-04-16T01:28:39.411Z,6.42
2017-04-16T01:29:20.287Z,6.38
2017-04-16T01:30:01.163Z,6.42
2017-04-16T01:30:42.042Z,6.38
2017-04-16T01:31:22.917Z,6.51
2017-04-16T01:32:03.795Z,6.39
2017-04-16T01:32:44.674Z,6.45
2017-04-16T01:33:25.540Z,6.31
2017-04-16T01:34:06.426Z,6.45
2017-04-16T01:34:47.334Z,6.41
2017-04-16T01:35:28.210Z,6.48
2017-04-16T01:36:09.120Z,6.45
2017-04-16T01:36:49.995Z,6.44
2017-04-16T01:37:30.869Z,6.31
2017-04-16T01:38:11.740Z,6.46
2017-04-16T01:38:52.635Z,6.42
2017-04-16T01:39:33.519Z,6.44
2017-04-16T01:40:14.417Z,6.35
2017-04-16T01:40:55.321Z,6.42
2017-04-16T01:41:36.197Z,6.51
2017-04-16T01:42:17.081Z,6.39
2017-04-16T01:42:57.950Z,6.56
2017-04-16T01:43:38.802Z,6.42
2017-04-16T01:44:19.658Z,6.48
2017-04-16T01:45:00.550Z,6.46
2017-04-16T01:45:41.456Z,6.44
2017-04-16T01:46:22.331Z,6.57
2017-04-16T01:47:03.199Z,6.59
2017-04-16T01:47:44.062Z,6.6
2017-04-16T01:48:24.934Z,6.66
2017-04-16T01:49:05.819Z,6.62
2017-04-16T01:49:46.685Z,6.54
2017-04-16T01:50:27.552Z,6.69
2017-04-16T01:51:08.453Z,6.54
2017-04-16T01:51:49.333Z,6.59
2017-04-16T01:52:30.239Z,6.41
2017-04-16T01:53:11.106Z,6.39
2017-04-16T01:53:51.969Z,6.44
2017-04-16T01:54:32.850Z,6.59
2017-04-16T01:55:13.807Z,6.51
2017-04-16T01:55:54.685Z,6.64
2017-04-16T01:56:35.555Z,6.66
2017-04-16T01:57:16.439Z,6.62
2017-04-16T01:57:57.311Z,6.67
2017-04-16T01:58:38.197Z,6.63
2017-04-16T01:59:19.056Z,6.48
2017-04-16T01:59:59.936Z,6.45
2017-04-16T02:00:40.812Z,6.42
2017-04-16T02:01:21.680Z,6.49
2017-04-16T02:02:02.553Z,6.41
2017-04-16T02:02:43.422Z,6.31
2017-04-16T02:03:24.300Z,6.33
2017-04-16T02:04:05.161Z,6.33
2017-04-16T02:04:46.031Z,6.39
2017-04-16T02:05:26.911Z,6.46
2017-04-16T02:06:07.792Z,6.48
2017-04-16T02:06:48.657Z,6.39
2017-04-16T02:07:29.535Z,6.41
2017-04-16T02:08:10.391Z,6.42
2017-04-16T02:08:51.309Z,6.52
2017-04-16T02:09:32.184Z,6.45
2017-04-16T02:10:13.061Z,6.38
2017-04-16T02:10:53.917Z,6.39
2017-04-16T02:11:34.787Z,6.3
2017-04-16T02:12:15.655Z,6.31
2017-04-16T02:12:56.518Z,6.42
2017-04-16T02:13:37.406Z,6.57
2017-04-16T02:14:18.326Z,6.54
2017-04-16T02:14:59.215Z,6.44
2017-04-16T02:15:40.099Z,6.54
2017-04-16T02:16:20.995Z,6.38
2017-04-16T02:17:01.846Z,6.41
2017-04-16T02:17:42.717Z,6.39
2017-04-16T02:18:23.589Z,6.41
2017-04-16T02:19:04.463Z,6.41
2017-04-16T02:19:45.335Z,6.56
2017-04-16T02:20:26.214Z,6.63
2017-04-16T02:21:07.090Z,6.45
2017-04-16T02:21:47.971Z,6.36
2017-04-16T02:22:28.832Z,6.33
2017-04-16T02:23:09.709Z,6.39
2017-04-16T02:23:50.573Z,6.41
2017-04-16T02:24:31.455Z,6.52
2017-04-16T02:25:12.327Z,6.52
2017-04-16T02:25:53.184Z,6.52
2017-04-16T02:26:34.056Z,6.57
2017-04-16T02:27:14.945Z,6.56
2017-04-16T02:27:55.804Z,6.46
2017-04-16T02:28:36.682Z,6.31
2017-04-16T02:29:17.568Z,6.39
2017-04-16T02:29:58.450Z,6.33
2017-04-16T02:30:39.325Z,6.44
2017-04-16T02:31:20.188Z,6.41
2017-04-16T02:32:01.071Z,6.6
2017-04-16T02:32:41.953Z,6.6
2017-04-16T02:33:22.824Z,6.41
2017-04-16T02:34:03.706Z,6.54
2017-04-16T02:34:44.554Z,6.52
2017-04-16T02:35:25.441Z,6.63
2017-04-16T02:36:06.273Z,6.56
2017-04-16T02:36:47.153Z,6.57
2017-04-16T02:37:28.037Z,6.54
2017-04-16T02:38:08.915Z,6.52
2017-04-16T02:38:49.781Z,6.44
2017-04-16T02:39:30.660Z,6.51
2017-04-16T02:40:11.542Z,6.57
2017-04-16T02:40:52.399Z,6.42
2017-04-16T02:41:33.303Z,6.41
2017-04-16T02:42:14.173Z,6.38
2017-04-16T02:42:55.047Z,6.24
2017-04-16T02:43:35.913Z,6.28
2017-04-16T02:44:16.784Z,6.35
2017-04-16T02:44:57.666Z,6.44
2017-04-16T02:45:38.543Z,6.31
2017-04-16T02:46:19.428Z,6.39
2017-04-16T02:47:00.302Z,6.42
2017-04-16T02:47:41.180Z,6.41
2017-04-16T02:48:22.067Z,6.33
2017-04-16T02:49:02.974Z,6.3
2017-04-16T02:49:43.839Z,6.49
2017-04-16T02:50:24.707Z,6.38
2017-04-16T02:51:05.603Z,6.41
2017-04-16T02:51:46.511Z,6.46
2017-04-16T02:52:27.383Z,6.36
2017-04-16T02:53:08.252Z,6.38
2017-04-16T02:53:49.118Z,6.3
2017-04-16T02:54:29.995Z,6.31
2017-04-16T02:55:10.876Z,6.31
2017-04-16T02:55:51.764Z,6.49
2017-04-16T02:56:32.645Z,6.41
2017-04-16T02:57:13.525Z,6.38
2017-04-16T02:57:54.404Z,6.38
2017-04-16T02:58:35.290Z,6.27
2017-04-16T02:59:16.167Z,6.12
2017-04-16T02:59:57.045Z,6.2
2017-04-16T03:00:37.926Z,6.17
2017-04-16T03:01:18.819Z,6.28
2017-04-16T03:01:59.702Z,6.2
2017-04-16T03:02:40.586Z,6.16
2017-04-16T03:03:21.465Z,6.22
2017-04-16T03:04:02.341Z,6.3
2017-04-16T03:04:43.223Z,6.35
2017-04-16T03:05:24.096Z,6.3
2017-04-16T03:06:05.033Z,6.36
2017-04-16T03:06:45.903Z,6.27
2017-04-16T03:07:26.772Z,6.28
2017-04-16T03:08:07.649Z,6.2
2017-04-16T03:08:48.523Z,6.31
2017-04-16T03:09:29.401Z,6.44
2017-04-16T03:10:10.282Z,6.42
2017-04-16T03:10:51.151Z,6.42
2017-04-16T03:11:32.030Z,6.38
2017-04-16T03:12:12.972Z,6.41
2017-04-16T03:12:53.854Z,6.41
2017-04-16T03:13:34.730Z,6.39
2017-04-16T03:14:15.613Z,6.28
2017-04-16T03:14:56.496Z,6.24
2017-04-16T03:15:37.365Z,6.27
2017-04-16T03:16:18.231Z,6.41
2017-04-16T03:16:59.102Z,6.41
2017-04-16T03:17:40.009Z,6.46
2017-04-16T03:18:20.878Z,6.42
2017-04-16T03:19:01.749Z,6.49
2017-04-16T03:19:42.637Z,6.42
2017-04-16T03:20:23.506Z,6.57
2017-04-16T03:21:04.380Z,6.51
2017-04-16T03:21:45.254Z,6.51
2017-04-16T03:22:26.133Z,6.52
2017-04-16T03:23:07.030Z,6.62
2017-04-16T03:23:47.905Z,6.44
2017-04-16T03:24:28.790Z,6.3
2017-04-16T03:25:09.693Z,6.31
2017-04-16T03:25:50.575Z,6.39
2017-04-16T03:26:31.449Z,6.44
2017-04-16T03:27:12.333Z,6.46
2017-04-16T03:27:53.204Z,6.48
2017-04-16T03:28:34.108Z,6.41
2017-04-16T03:29:14.972Z,6.38
2017-04-16T03:29:55.866Z,6.31
2017-04-16T03:30:36.743Z,6.41
2017-04-16T03:31:17.617Z,6.44
2017-04-16T03:31:58.502Z,6.41
2017-04-16T03:32:39.364Z,6.31
2017-04-16T03:33:20.244Z,6.35
2017-04-16T03:34:01.125Z,6.44
2017-04-16T03:34:42.001Z,6.39
2017-04-16T03:35:22.880Z,6.44
2017-04-16T03:36:03.771Z,6.52
2017-04-16T03:36:44.654Z,6.41
2017-04-16T03:37:25.536Z,6.36
2017-04-16T03:38:06.405Z,6.39
2017-04-16T03:38:47.281Z,6.42
2017-04-16T03:39:28.163Z,6.57
2017-04-16T03:40:09.050Z,6.51
2017-04-16T03:40:49.923Z,6.42
2017-04-16T03:41:30.795Z,6.45
2017-04-16T03:42:11.670Z,6.6
2017-04-16T03:42:52.553Z,6.57
2017-04-16T03:43:33.445Z,6.57
2017-04-16T03:44:14.316Z,6.49
2017-04-16T03:44:55.196Z,6.49
2017-04-16T03:45:36.081Z,6.56
2017-04-16T03:46:16.963Z,6.62
2017-04-16T03:46:57.832Z,6.59
2017-04-16T03:47:38.710Z,6.63
2017-04-16T03:48:19.579Z,6.56
2017-04-16T03:49:00.452Z,6.31
2017-04-16T03:49:41.318Z,6.44
2017-04-16T03:50:22.183Z,6.63
2017-04-16T03:51:03.064Z,6.63
2017-04-16T03:51:43.943Z,6.57
2017-04-16T03:52:24.869Z,6.63
2017-04-16T03:53:05.733Z,6.42
2017-04-16T03:53:46.607Z,6.44
2017-04-16T03:54:27.494Z,6.38
2017-04-16T03:55:08.366Z,6.3
2017-04-16T03:55:49.248Z,6.42
2017-04-16T03:56:30.130Z,6.41
2017-04-16T03:57:11.012Z,6.46
2017-04-16T03:57:51.890Z,6.59
2017-04-16T03:58:32.784Z,6.54
2017-04-16T03:59:13.654Z,6.56
2017-04-16T03:59:54.528Z,6.56
2017-04-16T04:00:35.403Z,6.67
2017-04-16T04:01:16.281Z,6.59
2017-04-16T04:01:57.160Z,6.51
2017-04-16T04:02:38.031Z,6.56
2017-04-16T04:03:18.920Z,6.66
2017-04-16T04:03:59.796Z,6.67
2017-04-16T04:04:40.674Z,6.74
2017-04-16T04:05:21.550Z,6.69
2017-04-16T04:06:02.436Z,6.57
2017-04-16T04:06:43.317Z,6.41
2017-04-16T04:07:24.195Z,6.41
2017-04-16T04:08:05.068Z,6.41
2017-04-16T04:08:45.948Z,6.6
2017-04-16T04:09:26.829Z,6.54
2017-04-16T04:10:07.708Z,6.52
2017-04-16T04:10:48.589Z,6.56
2017-04-16T04:11:29.463Z,6.49
2017-04-16T04:12:10.343Z,6.67
2017-04-16T04:12:51.225Z,6.66
2017-04-16T04:13:32.124Z,6.59
2017-04-16T04:14:13.005Z,6.42
2017-04-16T04:14:53.883Z,6.41
2017-04-16T04:15:34.768Z,6.54
2017-04-16T04:16:15.666Z,6.57
2017-04-16T04:16:56.520Z,6.59
2017-04-16T04:17:37.402Z,6.54
2017-04-16T04:18:18.292Z,6.66
2017-04-16T04:18:59.162Z,6.67
2017-04-16T04:19:40.041Z,6.66
2017-04-16T04:20:20.924Z,6.63
2017-04-16T04:21:01.804Z,6.62
2017-04-16T04:21:42.685Z,6.36
2017-04-16T04:22:23.614Z,6.42
2017-04-16T04:23:04.480Z,6.46
2017-04-16T04:23:45.356Z,6.33
2017-04-16T04:24:26.228Z,6.52
2017-04-16T04:25:07.123Z,6.52
2017-04-16T04:25:48.061Z,6.54
2017-04-16T04:26:28.869Z,6.51
2017-04-16T04:27:09.740Z,6.39
2017-04-16T04:27:50.621Z,6.38
2017-04-16T04:28:31.500Z,6.39
2017-04-16T04:29:12.389Z,6.49
2017-04-16T04:29:53.260Z,6.39
2017-04-16T04:30:34.170Z,6.39
2017-04-16T04:31:15.037Z,6.41
2017-04-16T04:31:55.908Z,6.41
2017-04-16T04:32:36.781Z,6.48
2017-04-16T04:33:17.653Z,6.62
2017-04-16T04:33:58.526Z,6.66
2017-04-16T04:34:39.397Z,6.72
2017-04-16T04:35:20.274Z,6.7
2017-04-16T04:36:01.152Z,6.72
2017-04-16T04:36:42.033Z,6.75
2017-04-16T04:37:22.909Z,6.79
2017-04-16T04:38:03.807Z,6.67
2017-04-16T04:38:44.691Z,6.75
2017-04-16T04:39:25.568Z,6.62
2017-04-16T04:40:06.440Z,6.62
2017-04-16T04:40:47.312Z,6.66
2017-04-16T04:41:28.199Z,6.77
2017-04-16T04:42:09.081Z,6.74
2017-04-16T04:42:49.962Z,6.74
2017-04-16T04:43:30.830Z,6.63
2017-04-16T04:44:11.704Z,6.56
2017-04-16T04:44:52.612Z,6.62
2017-04-16T04:45:33.487Z,6.6
2017-04-16T04:46:14.368Z,6.66
2017-04-16T04:46:55.240Z,6.7
2017-04-16T04:47:36.117Z,6.67
2017-04-16T04:48:16.983Z,6.69
2017-04-16T04:48:57.855Z,6.77
2017-04-16T04:49:38.756Z,6.74
2017-04-16T04:50:19.639Z,6.69
2017-04-16T04:51:00.513Z,6.75
2017-04-16T04:51:41.401Z,6.63
2017-04-16T04:52:22.288Z,6.62
2017-04-16T04:53:03.171Z,6.6
2017-04-16T04:53:44.051Z,6.67
2017-04-16T04:54:24.929Z,6.59
2017-04-16T04:55:05.814Z,6.59
2017-04-16T04:55:46.688Z,6.54
2017-04-16T04:56:27.565Z,6.52
2017-04-16T04:57:08.445Z,6.59
2017-04-16T04:57:49.331Z,6.63
2017-04-16T04:58:30.206Z,6.69
2017-04-16T04:59:11.098Z,6.67
2017-04-16T04:59:51.979Z,6.79
2017-04-16T05:00:32.856Z,6.89
2017-04-16T05:01:13.736Z,6.81
2017-04-16T05:01:54.616Z,6.82
2017-04-16T05:02:35.485Z,6.78
2017-04-16T05:03:16.366Z,6.78
2017-04-16T05:03:57.252Z,6.72
2017-04-16T05:04:38.138Z,6.79
2017-04-16T05:05:19.019Z,6.88
2017-04-16T05:05:59.899Z,6.84
2017-04-16T05:06:40.780Z,6.72
2017-04-16T05:07:21.744Z,6.75
2017-04-16T05:08:02.602Z,6.77
2017-04-16T05:08:43.477Z,6.69
2017-04-16T05:09:24.361Z,6.69
2017-04-16T05:10:05.292Z,6.67
2017-04-16T05:10:46.161Z,6.82
2017-04-16T05:11:27.033Z,6.85
2017-04-16T05:12:07.909Z,6.82
2017-04-16T05:12:48.795Z,6.85
2017-04-16T05:13:29.670Z,6.82
2017-04-16T05:14:10.555Z,6.74
2017-04-16T05:14:51.438Z,6.81
2017-04-16T05:15:32.313Z,6.81
2017-04-16T05:16:13.198Z,6.79
2017-04-16T05:16:54.079Z,6.69
2017-04-16T05:17:34.959Z,6.63
2017-04-16T05:18:15.885Z,6.7
2017-04-16T05:18:56.754Z,6.74
2017-04-16T05:19:37.633Z,6.84
2017-04-16T05:20:18.504Z,6.93
2017-04-16T05:20:59.383Z,6.89
2017-04-16T05:21:40.259Z,6.99
2017-04-16T05:22:21.159Z,6.95
2017-04-16T05:23:02.040Z,6.84
2017-04-16T05:23:42.917Z,6.69
2017-04-16T05:24:23.790Z,6.74
2017-04-16T05:25:04.676Z,6.77
2017-04-16T05:25:45.556Z,6.72
2017-04-16T05:26:26.434Z,6.64
2017-04-16T05:27:07.310Z,6.67
2017-04-16T05:27:48.192Z,6.75
2017-04-16T05:28:29.073Z,6.67
2017-04-16T05:29:09.952Z,6.75
2017-04-16T05:29:50.824Z,6.66
2017-04-16T05:30:31.697Z,6.69
2017-04-16T05:31:12.575Z,6.75
2017-04-16T05:31:53.459Z,6.79
2017-04-16T05:32:34.339Z,6.93
2017-04-16T05:33:15.218Z,6.85
2017-04-16T05:33:56.098Z,6.89
2017-04-16T05:34:36.978Z,6.88
2017-04-16T05:35:17.864Z,6.78
2017-04-16T05:35:58.742Z,6.77
2017-04-16T05:36:39.616Z,6.77
2017-04-16T05:37:20.500Z,6.74
2017-04-16T05:38:01.404Z,6.75
2017-04-16T05:38:42.278Z,6.64
2017-04-16T05:39:23.153Z,6.67
2017-04-16T05:40:04.029Z,6.7
2017-04-16T05:40:44.903Z,6.63
2017-04-16T05:41:25.814Z,6.82
2017-04-16T05:42:06.701Z,6.87
2017-04-16T05:42:47.578Z,6.84
2017-04-16T05:43:28.459Z,6.84
2017-04-16T05:44:09.331Z,6.67
2017-04-16T05:44:50.205Z,6.6
2017-04-16T05:45:31.079Z,6.66
2017-04-16T05:46:11.955Z,6.67
2017-04-16T05:46:52.838Z,6.84
2017-04-16T05:47:33.719Z,6.82
2017-04-16T05:48:14.597Z,6.74
2017-04-16T05:48:55.471Z,6.67
2017-04-16T05:49:36.351Z,6.7
2017-04-16T05:50:17.234Z,6.78
2017-04-16T05:50:58.107Z,6.67
2017-04-16T05:51:38.977Z,6.66
2017-04-16T05:52:19.847Z,6.84
2017-04-16T05:53:00.719Z,6.87
2017-04-16T05:53:41.597Z,6.84
2017-04-16T05:54:22.475Z,6.87
2017-04-16T05:55:03.357Z,6.89
2017-04-16T05:55:44.223Z,7.03
2017-04-16T05:56:25.096Z,7.03
2017-04-16T05:57:05.977Z,7.06
2017-04-16T05:57:46.970Z,7.06
2017-04-16T05:58:27.834Z,7.02
2017-04-16T05:59:08.716Z,7.02
2017-04-16T05:59:49.592Z,7.24
2017-04-16T06:00:30.509Z,7.24
2017-04-16T06:01:11.391Z,7.21
2017-04-16T06:01:52.270Z,7.2
2017-04-16T06:02:33.145Z,7.29
2017-04-16T06:03:14.022Z,7.39
2017-04-16T06:03:54.918Z,7.23
2017-04-16T06:04:35.798Z,7.18
2017-04-16T06:05:16.679Z,7.39
2017-04-16T06:05:57.577Z,7.21
2017-04-16T06:06:38.447Z,7.31
2017-04-16T06:07:19.329Z,7.32
2017-04-16T06:08:00.203Z,7.31
2017-04-16T06:08:41.081Z,7.31
2017-04-16T06:09:21.962Z,7.15
2017-04-16T06:10:02.844Z,7.06
2017-04-16T06:10:43.727Z,6.99
2017-04-16T06:11:24.591Z,7.02
2017-04-16T06:12:05.494Z,7.06
2017-04-16T06:13:33.592Z,7.05
2017-04-16T06:14:14.466Z,7.1
2017-04-16T06:14:55.396Z,7.06
2017-04-16T06:15:36.228Z,7.03
2017-04-16T06:16:17.102Z,7.03
2017-04-16T06:16:57.983Z,7.18
2017-04-16T06:17:38.864Z,7.15
2017-04-16T06:18:19.739Z,7.05
2017-04-16T06:19:00.606Z,7.2
2017-04-16T06:19:41.483Z,7.02
2017-04-16T06:20:22.358Z,7.02
2017-04-16T06:21:03.239Z,7.02
2017-04-16T06:21:44.116Z,6.89
2017-04-16T06:22:24.989Z,7.13
2017-04-16T06:23:05.883Z,7
2017-04-16T06:23:46.773Z,7.05
2017-04-16T06:24:27.641Z,7
2017-04-16T06:25:08.506Z,7.06
2017-04-16T06:25:49.437Z,7.15
2017-04-16T06:26:30.324Z,7.25
2017-04-16T06:27:11.312Z,7.18
2017-04-16T06:27:52.379Z,7.11
2017-04-16T06:28:33.252Z,7.11
2017-04-16T06:29:14.128Z,7.23
2017-04-16T06:29:55.010Z,7.2
2017-04-16T06:30:35.882Z,7.18
2017-04-16T06:31:16.778Z,7.32
2017-04-16T06:31:57.643Z,7.32
2017-04-16T06:32:38.522Z,7.14
2017-04-16T06:33:19.387Z,7.18
2017-04-16T06:34:00.260Z,7.1
2017-04-16T06:34:41.134Z,7.05
2017-04-16T06:35:22.016Z,6.97
2017-04-16T06:36:02.893Z,7.14
2017-04-16T06:36:43.770Z,7.14
2017-04-16T06:37:24.640Z,7.03
2017-04-16T06:38:05.520Z,6.77
2017-04-16T06:38:46.393Z,6.74
2017-04-16T06:39:27.272Z,6.81
2017-04-16T06:40:08.153Z,6.84
2017-04-16T06:40:49.028Z,6.85
2017-04-16T06:41:29.908Z,6.78
2017-04-16T06:42:10.808Z,6.67
2017-04-16T06:42:51.697Z,6.7
2017-04-16T06:43:32.583Z,6.64
2017-04-16T06:44:13.458Z,6.63
2017-04-16T06:44:54.356Z,6.77
2017-04-16T06:45:35.227Z,6.75
2017-04-16T06:46:16.099Z,6.79
2017-04-16T06:46:57.026Z,6.79
2017-04-16T06:47:37.866Z,6.75
2017-04-16T06:48:18.745Z,6.82
2017-04-16T06:48:59.627Z,6.84
2017-04-16T06:49:40.498Z,6.84
2017-04-16T06:50:21.378Z,7.03
2017-04-16T06:51:02.259Z,6.96
2017-04-16T06:51:43.136Z,6.89
2017-04-16T06:52:24.007Z,6.88
2017-04-16T06:53:04.893Z,6.99
2017-04-16T06:53:45.773Z,6.97
2017-04-16T06:54:26.648Z,6.99
2017-04-16T06:55:07.530Z,7.13
2017-04-16T06:55:48.425Z,7.31
2017-04-16T06:56:29.299Z,7.45
2017-04-16T06:57:10.174Z,7.51
2017-04-16T06:57:51.059Z,7.66
2017-04-16T06:58:31.943Z,7.51
2017-04-16T06:59:12.808Z,7.43
2017-04-16T06:59:53.683Z,7.48
2017-04-16T07:00:34.552Z,7.5
2017-04-16T07:01:15.425Z,7.69
2017-04-16T07:01:56.303Z,7.77
2017-04-16T07:02:37.190Z,7.76
2017-04-16T07:03:18.059Z,7.82
2017-04-16T07:03:58.941Z,7.79
2017-04-16T07:04:39.818Z,7.7
2017-04-16T07:05:20.692Z,7.72
2017-04-16T07:06:01.570Z,7.61
2017-04-16T07:06:42.444Z,7.63
2017-04-16T07:07:23.311Z,7.69
2017-04-16T07:08:04.188Z,7.76
2017-04-16T07:08:45.065Z,7.87
2017-04-16T07:09:25.954Z,7.77
2017-04-16T07:10:06.831Z,7.61
2017-04-16T07:10:47.705Z,7.63
2017-04-16T07:11:28.587Z,7.57
2017-04-16T07:12:09.460Z,7.69
2017-04-16T07:12:50.353Z,7.61
2017-04-16T07:13:31.230Z,7.61
2017-04-16T07:14:12.104Z,7.61
2017-04-16T07:14:52.976Z,7.51
2017-04-16T07:15:33.859Z,7.51
2017-04-16T07:16:14.740Z,7.35
2017-04-16T07:16:55.620Z,7.36
2017-04-16T07:17:36.490Z,7.48
2017-04-16T07:18:17.365Z,7.45
2017-04-16T07:18:58.238Z,7.32
2017-04-16T07:19:39.117Z,7.17
2017-04-16T07:20:20.000Z,7.21
2017-04-16T07:21:00.869Z,7.21
2017-04-16T07:21:41.748Z,7.28
2017-04-16T07:22:22.632Z,7.17
2017-04-16T07:23:03.512Z,7.21
2017-04-16T07:23:44.392Z,7.1
2017-04-16T07:24:25.265Z,7
2017-04-16T07:25:06.135Z,7.03
2017-04-16T07:25:47.076Z,6.82
2017-04-16T07:26:27.959Z,6.85
2017-04-16T07:27:08.843Z,6.77
2017-04-16T07:27:49.729Z,6.82
2017-04-16T07:28:30.610Z,6.75
2017-04-16T07:29:11.496Z,6.89
2017-04-16T07:29:52.375Z,6.66
2017-04-16T07:30:33.264Z,6.48
2017-04-16T07:31:14.136Z,6.44
2017-04-16T07:31:55.021Z,6.44
2017-04-16T07:32:35.901Z,6.42
2017-04-16T07:33:16.778Z,6.41
2017-04-16T07:33:57.658Z,6.66
2017-04-16T07:34:38.540Z,6.7
2017-04-16T07:35:19.415Z,6.49
2017-04-16T07:36:00.291Z,6.42
2017-04-16T07:36:41.174Z,6.54
2017-04-16T07:37:22.057Z,6.42
2017-04-16T07:38:02.932Z,6.39
2017-04-16T07:38:43.804Z,6.44
2017-04-16T07:39:24.680Z,6.41
2017-04-16T07:40:05.558Z,6.45
2017-04-16T07:40:46.441Z,6.54
2017-04-16T07:41:27.327Z,6.44
2017-04-16T07:42:08.202Z,6.52
2017-04-16T07:42:49.083Z,6.33
2017-04-16T07:43:29.963Z,6.41
2017-04-16T07:44:10.854Z,6.33
2017-04-16T07:44:51.726Z,6.3
2017-04-16T07:45:32.604Z,6.56
2017-04-16T07:46:13.480Z,6.42
2017-04-16T07:46:54.367Z,6.31
2017-04-16T07:47:35.252Z,6.28
2017-04-16T07:48:16.113Z,6.46
2017-04-16T07:48:57.009Z,6.41
2017-04-16T07:49:37.889Z,6.46
2017-04-16T07:50:18.769Z,6.6
2017-04-16T07:50:59.646Z,6.42
2017-04-16T07:51:40.525Z,6.44
2017-04-16T07:52:21.407Z,6.41
2017-04-16T07:53:02.283Z,6.78
2017-04-16T07:53:43.166Z,6.89
2017-04-16T07:54:24.034Z,6.88
2017-04-16T07:55:04.921Z,6.88
2017-04-16T07:55:45.800Z,6.95
2017-04-16T07:56:26.683Z,6.89
2017-04-16T07:57:07.549Z,7.05
2017-04-16T07:57:48.430Z,7.39
2017-04-16T07:58:29.306Z,7.48
2017-04-16T07:59:10.198Z,8.85
2017-04-16T07:59:51.077Z,9.92
2017-04-16T08:00:31.953Z,10.42
2017-04-16T08:01:12.831Z,9.47
2017-04-16T08:01:53.720Z,8.79
2017-04-16T08:02:34.606Z,8.84
2017-04-16T08:03:15.495Z,8.94
2017-04-16T08:03:56.368Z,8.94
2017-04-16T08:04:37.256Z,8.95
2017-04-16T08:05:18.149Z,8.63
2017-04-16T08:05:59.019Z,8.74
2017-04-16T08:06:39.896Z,8.79
2017-04-16T08:07:20.783Z,8.92
2017-04-16T08:08:01.674Z,9.1
2017-04-16T08:08:42.565Z,8.79
2017-04-16T08:09:23.443Z,9.03
2017-04-16T08:10:04.333Z,9.32
2017-04-16T08:10:45.212Z,9.32
2017-04-16T08:11:26.092Z,9.21
2017-04-16T08:12:06.969Z,9.51
2017-04-16T08:12:47.858Z,9.58
2017-04-16T08:13:28.745Z,9.1
2017-04-16T08:14:09.631Z,9.08
2017-04-16T08:14:50.531Z,8.87
2017-04-16T08:15:31.425Z,8.76
2017-04-16T08:16:12.308Z,8.91
2017-04-16T08:16:53.188Z,9.31
2017-04-16T08:17:34.079Z,9.54
2017-04-16T08:19:03.159Z,9.14
2017-04-16T08:19:44.056Z,9.73
2017-04-16T08:20:24.943Z,9.43
2017-04-16T08:21:05.820Z,9.59
2017-04-16T08:21:46.710Z,9.46
2017-04-16T08:22:27.596Z,9.06
2017-04-16T08:23:08.482Z,8.66
2017-04-16T08:23:49.382Z,8.55
2017-04-16T08:24:30.263Z,8.81
2017-04-16T08:25:11.149Z,8.73
2017-04-16T08:25:52.019Z,8.55
2017-04-16T08:26:32.916Z,8.66
2017-04-16T08:27:13.797Z,8.55
2017-04-16T08:27:54.683Z,8.58
2017-04-16T08:28:35.572Z,8.63
2017-04-16T08:29:16.455Z,8.63
2017-04-16T08:29:57.327Z,8.64
2017-04-16T08:30:38.200Z,8.56
2017-04-16T08:31:19.074Z,8.56
2017-04-16T08:31:59.955Z,8.37
2017-04-16T08:32:40.835Z,8.19
2017-04-16T08:33:21.734Z,8.26
2017-04-16T08:34:02.615Z,8.33
2017-04-16T08:34:43.489Z,8.09
2017-04-16T08:35:24.370Z,7.98
2017-04-16T08:36:05.257Z,7.88
2017-04-16T08:36:46.135Z,8.01
2017-04-16T08:37:27.016Z,7.88
2017-04-16T08:38:07.906Z,8.05
2017-04-16T08:38:48.790Z,8.03
2017-04-16T08:39:29.665Z,8.24
2017-04-16T08:40:10.555Z,8.45
2017-04-16T08:40:51.441Z,8.34
2017-04-16T08:41:32.314Z,8.06
2017-04-16T08:42:13.193Z,8.06
2017-04-16T08:42:54.069Z,8
2017-04-16T08:43:34.954Z,8.23
2017-04-16T08:44:15.830Z,8.15
2017-04-16T08:44:56.714Z,8.13
2017-04-16T08:45:37.591Z,8.26
2017-04-16T08:46:18.473Z,8.33
2017-04-16T08:46:59.345Z,8.44
2017-04-16T08:47:40.228Z,8.61
2017-04-16T08:48:21.157Z,8.78
2017-04-16T08:49:02.040Z,8.88
2017-04-16T08:49:42.923Z,8.82
2017-04-16T08:50:23.798Z,8.81
2017-04-16T08:51:04.676Z,8.91
2017-04-16T08:51:45.559Z,9.03
2017-04-16T08:52:26.436Z,9.03
2017-04-16T08:53:07.310Z,9.37
2017-04-16T08:53:48.183Z,9.06
2017-04-16T08:54:29.057Z,9.21
2017-04-16T08:55:09.935Z,9.11
2017-04-16T08:55:50.821Z,8.67
2017-04-16T08:56:31.697Z,8.78
2017-04-16T08:57:12.580Z,8.89
2017-04-16T08:57:53.458Z,9.11
2017-04-16T08:58:34.346Z,8.99
2017-04-16T08:59:15.241Z,9.16
2017-04-16T08:59:56.105Z,9.03
2017-04-16T09:00:36.995Z,8.91
2017-04-16T09:01:17.885Z,8.82
2017-04-16T09:01:58.767Z,8.99
2017-04-16T09:02:39.636Z,9.34
2017-04-16T09:03:20.514Z,9.06
2017-04-16T09:04:01.382Z,8.91
2017-04-16T09:04:42.276Z,9.06
2017-04-16T09:05:23.163Z,9.28
2017-04-16T09:06:04.043Z,9.55
2017-04-16T09:06:44.984Z,9.43
2017-04-16T09:07:25.842Z,9.68
2017-04-16T09:08:06.716Z,9.55
2017-04-16T09:08:47.600Z,9.54
2017-04-16T09:09:28.485Z,9.47